Time;durP1;ratioP1;P1;durP2;ratioP2;P2;SDS_P1;SDS_P2;PMS_P1;PMS_P2;Temp;Humidity;BMP_temperature;BMP_pressure;BME280_temperature;BME280_humidity;BME280_pressure;Samples;Min_cycle;Max_cycle;Signal;HPM_P1;HPM_P2
2022/12/30 00:01:47;;;;;;;111.00;53.35;;;;;;;;;;5055670;28;20079;-77
2022/12/30 00:04:13;;;;;;;111.40;50.83;;;;;;;;;;5056031;28;20059;-78
2022/12/30 00:06:38;;;;;;;108.10;51.63;;;;;;;;;;5057774;28;20083;-78
2022/12/30 00:09:03;;;;;;;107.18;53.20;;;;;;;;;;5047205;28;20029;-78
2022/12/30 00:11:31;;;;;;;109.78;52.75;;;;;;;;;;5066244;28;20442;-78
2022/12/30 00:34:12;;;;;;;110.70;55.80;;;;;;;;;;5028633;28;20039;-78
2022/12/30 00:36:37;;;;;;;119.45;58.50;;;;;;;;;;5035044;28;20033;-78
2022/12/30 00:39:03;;;;;;;122.80;60.70;;;;;;;;;;5034231;28;20040;-78
2022/12/30 00:44:12;;;;;;;117.88;57.00;;;;;;;;;;5034653;28;20100;-78
2022/12/30 00:46:38;;;;;;;115.90;56.63;;;;;;;;;;5034770;28;20440;-78
2022/12/30 00:57:15;;;;;;;133.05;60.65;;;;;;;;;;5034553;28;20036;-78
2022/12/30 00:59:41;;;;;;;130.88;60.03;;;;;;;;;;5035397;28;20025;-77
2022/12/30 01:02:06;;;;;;;124.80;57.63;;;;;;;;;;5054792;28;20096;-77
2022/12/30 01:04:32;;;;;;;126.32;62.00;;;;;;;;;;5026587;28;20025;-78
2022/12/30 01:06:57;;;;;;;129.77;62.72;;;;;;;;;;5038009;28;20029;-78
2022/12/30 01:09:22;;;;;;;119.20;57.45;;;;;;;;;;5034893;28;20032;-78
2022/12/30 01:12:07;;;;;;;128.63;61.13;;;;;;;;;;5016597;28;20034;-77
2022/12/30 01:14:43;;;;;;;118.60;57.80;;;;;;;;;;5034669;28;20366;-77
2022/12/30 01:17:10;;;;;;;132.63;59.33;;;;;;;;;;5033389;28;20033;-77
2022/12/30 01:19:36;;;;;;;124.45;58.97;;;;;;;;;;5034355;28;20391;-77
2022/12/30 01:22:02;;;;;;;121.53;60.42;;;;;;;;;;5017128;28;20108;-78
2022/12/30 01:24:27;;;;;;;125.40;60.28;;;;;;;;;;5033109;28;20439;-77
2022/12/30 01:26:53;;;;;;;141.00;61.50;;;;;;;;;;5049604;28;20021;-78
2022/12/30 01:29:21;;;;;;;158.10;71.25;;;;;;;;;;5034203;28;20060;-77
2022/12/30 01:31:47;;;;;;;161.05;69.10;;;;;;;;;;5034314;28;20139;-77
2022/12/30 01:34:12;;;;;;;139.77;65.32;;;;;;;;;;5000216;28;20080;-78
2022/12/30 01:36:37;;;;;;;138.52;63.78;;;;;;;;;;5033066;28;20025;-78
2022/12/30 01:39:03;;;;;;;144.80;64.57;;;;;;;;;;5033929;28;20141;-77
2022/12/30 01:41:28;;;;;;;132.20;61.50;;;;;;;;;;5033584;28;20039;-78
2022/12/30 01:43:54;;;;;;;131.07;63.55;;;;;;;;;;5033076;28;20043;-78
2022/12/30 01:46:24;;;;;;;136.23;63.95;;;;;;;;;;5033899;28;20089;-78
2022/12/30 01:48:50;;;;;;;131.73;63.63;;;;;;;;;;5016447;28;20095;-78
2022/12/30 01:51:18;;;;;;;134.95;62.53;;;;;;;;;;5016118;28;20029;-78
2022/12/30 01:53:45;;;;;;;130.98;59.88;;;;;;;;;;5016809;28;20084;-77
2022/12/30 01:56:25;;;;;;;123.55;59.90;;;;;;;;;;5015849;28;20371;-77
2022/12/30 01:58:59;;;;;;;120.25;57.22;;;;;;;;;;5016075;28;20030;-78
2022/12/30 02:01:24;;;;;;;114.07;56.38;;;;;;;;;;5016301;28;20048;-78
2022/12/30 02:03:56;;;;;;;114.03;54.30;;;;;;;;;;5016417;28;20018;-78
2022/12/30 02:06:22;;;;;;;114.15;55.15;;;;;;;;;;5034341;28;20030;-78
2022/12/30 02:08:47;;;;;;;114.55;55.30;;;;;;;;;;5016624;28;20036;-78
2022/12/30 02:11:13;;;;;;;132.52;59.53;;;;;;;;;;5015684;28;20025;-78
2022/12/30 02:13:38;;;;;;;127.80;57.50;;;;;;;;;;5016099;28;20026;-77
2022/12/30 02:16:25;;;;;;;119.85;54.55;;;;;;;;;;5016109;28;20340;-77
2022/12/30 02:19:18;;;;;;;108.90;52.38;;;;;;;;;;5033812;28;20045;-78
2022/12/30 02:21:49;;;;;;;110.47;51.00;;;;;;;;;;5033641;28;20369;-77
2022/12/30 02:24:17;;;;;;;105.18;49.42;;;;;;;;;;5033576;28;20037;-77
2022/12/30 02:26:51;;;;;;;109.55;54.15;;;;;;;;;;5033487;28;20033;-77
2022/12/30 02:29:28;;;;;;;111.47;53.08;;;;;;;;;;5033561;28;20037;-78
2022/12/30 02:32:15;;;;;;;108.53;52.83;;;;;;;;;;5036489;28;20451;-78
2022/12/30 02:34:52;;;;;;;111.85;54.47;;;;;;;;;;5019815;28;20029;-78
2022/12/30 02:37:27;;;;;;;114.93;54.25;;;;;;;;;;5036853;28;20037;-78
2022/12/30 02:40:16;;;;;;;127.53;61.58;;;;;;;;;;5020563;28;20069;-78
2022/12/30 02:45:43;;;;;;;138.95;67.97;;;;;;;;;;5022634;28;20040;-77
2022/12/30 02:48:11;;;;;;;138.55;66.85;;;;;;;;;;5020255;28;20037;-77
2022/12/30 02:53:22;;;;;;;137.68;65.93;;;;;;;;;;5021725;28;20067;-77
2022/12/30 02:55:48;;;;;;;141.02;68.00;;;;;;;;;;5019767;28;20033;-77
2022/12/30 02:58:13;;;;;;;136.55;65.00;;;;;;;;;;5037045;28;20029;-77
2022/12/30 03:04:31;;;;;;;120.72;54.53;;;;;;;;;;4975995;28;20185;-78
2022/12/30 03:07:05;;;;;;;105.78;49.38;;;;;;;;;;5004361;28;20029;-78
2022/12/30 03:13:20;;;;;;;99.55;42.92;;;;;;;;;;5017813;28;20366;-78
2022/12/30 03:15:59;;;;;;;94.50;43.08;;;;;;;;;;5035432;28;20399;-77
2022/12/30 03:18:25;;;;;;;90.40;41.35;;;;;;;;;;5019418;28;20048;-78
2022/12/30 03:20:50;;;;;;;96.22;44.40;;;;;;;;;;5019071;28;20427;-77
2022/12/30 03:28:45;;;;;;;100.72;44.67;;;;;;;;;;5035094;28;20032;-78
2022/12/30 03:31:11;;;;;;;118.47;50.40;;;;;;;;;;5035174;28;20037;-78
2022/12/30 03:33:37;;;;;;;100.15;46.58;;;;;;;;;;5035401;28;20088;-77
2022/12/30 03:36:14;;;;;;;110.97;48.72;;;;;;;;;;5018722;28;20112;-78
2022/12/30 03:38:41;;;;;;;109.70;46.67;;;;;;;;;;5035406;28;20112;-78
2022/12/30 03:41:07;;;;;;;100.20;44.67;;;;;;;;;;5035014;28;20041;-78
2022/12/30 03:43:32;;;;;;;99.68;43.78;;;;;;;;;;5019664;28;20065;-78
2022/12/30 03:45:58;;;;;;;98.28;44.30;;;;;;;;;;5046193;28;20434;-76
2022/12/30 03:48:24;;;;;;;101.93;46.08;;;;;;;;;;5029614;28;20021;-77
2022/12/30 03:50:49;;;;;;;101.43;45.25;;;;;;;;;;5046510;28;20089;-78
2022/12/30 03:53:15;;;;;;;103.65;44.63;;;;;;;;;;5037470;28;20033;-78
2022/12/30 03:55:40;;;;;;;101.97;44.50;;;;;;;;;;5036667;28;20029;-78
2022/12/30 03:58:06;;;;;;;109.65;47.05;;;;;;;;;;5036032;28;20083;-78
2022/12/30 04:00:32;;;;;;;100.80;44.88;;;;;;;;;;5018640;28;20071;-78
2022/12/30 04:02:57;;;;;;;108.03;46.05;;;;;;;;;;5035747;28;20848;-79
2022/12/30 04:05:22;;;;;;;108.55;46.20;;;;;;;;;;5018127;28;20371;-78
2022/12/30 04:07:48;;;;;;;104.22;46.00;;;;;;;;;;5002834;28;20038;-78
2022/12/30 04:10:13;;;;;;;104.90;46.20;;;;;;;;;;5038040;28;20025;-78
2022/12/30 04:12:39;;;;;;;112.88;49.13;;;;;;;;;;5037598;28;20034;-78
2022/12/30 04:15:05;;;;;;;122.72;50.30;;;;;;;;;;5020418;28;20060;-78
2022/12/30 04:17:31;;;;;;;113.40;51.90;;;;;;;;;;5041276;28;20434;-79
2022/12/30 04:19:56;;;;;;;116.75;50.80;;;;;;;;;;5043646;28;20448;-79
2022/12/30 04:22:22;;;;;;;122.13;51.60;;;;;;;;;;5044459;28;20431;-78
2022/12/30 04:24:47;;;;;;;120.65;51.58;;;;;;;;;;5019132;28;20107;-78
2022/12/30 04:27:12;;;;;;;111.90;48.20;;;;;;;;;;5037323;28;20112;-78
2022/12/30 04:29:38;;;;;;;111.72;50.58;;;;;;;;;;5034825;28;20516;-77
2022/12/30 04:32:03;;;;;;;108.72;51.30;;;;;;;;;;5035462;28;20033;-77
2022/12/30 04:34:29;;;;;;;108.38;52.85;;;;;;;;;;5034971;28;20022;-78
2022/12/30 04:36:54;;;;;;;109.85;52.80;;;;;;;;;;5033882;28;20128;-77
2022/12/30 04:39:20;;;;;;;109.53;51.65;;;;;;;;;;5035168;28;20095;-77
2022/12/30 04:41:47;;;;;;;98.03;47.85;;;;;;;;;;5017428;28;20152;-77
2022/12/30 04:44:13;;;;;;;97.22;46.65;;;;;;;;;;5018009;28;20033;-77
2022/12/30 04:46:38;;;;;;;88.47;41.97;;;;;;;;;;5035177;28;20042;-77
2022/12/30 04:49:04;;;;;;;88.47;41.22;;;;;;;;;;5035054;28;20033;-76
2022/12/30 04:51:29;;;;;;;93.70;43.17;;;;;;;;;;5034698;28;20045;-77
2022/12/30 04:53:55;;;;;;;86.50;39.65;;;;;;;;;;5016821;28;20044;-77
2022/12/30 04:56:20;;;;;;;80.07;36.92;;;;;;;;;;5034701;28;20033;-77
2022/12/30 04:58:46;;;;;;;74.47;36.88;;;;;;;;;;5001456;28;20036;-77
2022/12/30 05:01:11;;;;;;;78.90;35.72;;;;;;;;;;5016962;28;20409;-77
2022/12/30 05:03:36;;;;;;;71.93;34.42;;;;;;;;;;5034482;28;20037;-77
2022/12/30 05:06:02;;;;;;;73.70;33.08;;;;;;;;;;5035140;28;20030;-78
2022/12/30 05:08:27;;;;;;;71.07;33.90;;;;;;;;;;5016809;28;20033;-77
2022/12/30 05:10:53;;;;;;;71.90;34.22;;;;;;;;;;5016754;28;20045;-77
2022/12/30 05:13:18;;;;;;;73.05;33.30;;;;;;;;;;5034730;28;20037;-77
2022/12/30 05:15:44;;;;;;;74.50;34.95;;;;;;;;;;5035296;28;20041;-77
2022/12/30 05:18:10;;;;;;;72.72;36.40;;;;;;;;;;5035943;28;20037;-77
2022/12/30 05:20:36;;;;;;;73.60;35.78;;;;;;;;;;5041902;28;20036;-77
2022/12/30 05:23:01;;;;;;;76.28;35.53;;;;;;;;;;5023239;28;20033;-77
2022/12/30 05:28:10;;;;;;;84.35;38.63;;;;;;;;;;5019853;28;20039;-77
2022/12/30 05:30:36;;;;;;;88.00;39.85;;;;;;;;;;5029919;28;20057;-77
2022/12/30 05:33:01;;;;;;;94.63;41.53;;;;;;;;;;5049340;28;20141;-77
2022/12/30 05:35:27;;;;;;;85.45;40.92;;;;;;;;;;5034256;28;20241;-77
2022/12/30 05:37:52;;;;;;;97.65;44.47;;;;;;;;;;5049460;28;20076;-77
2022/12/30 05:40:18;;;;;;;100.90;49.42;;;;;;;;;;5033938;28;20030;-77
2022/12/30 05:42:43;;;;;;;107.78;54.33;;;;;;;;;;5033999;28;20029;-77
2022/12/30 05:45:09;;;;;;;121.90;56.67;;;;;;;;;;5049596;28;20542;-77
2022/12/30 05:47:34;;;;;;;115.00;56.85;;;;;;;;;;5049305;28;20491;-77
2022/12/30 05:50:00;;;;;;;113.53;55.67;;;;;;;;;;5034165;28;20355;-76
2022/12/30 05:52:27;;;;;;;106.13;50.65;;;;;;;;;;5049377;28;20029;-77
2022/12/30 05:54:53;;;;;;;122.32;59.03;;;;;;;;;;5032816;28;20030;-77
2022/12/30 05:57:18;;;;;;;112.95;55.28;;;;;;;;;;5032638;28;20164;-77
2022/12/30 05:59:43;;;;;;;117.10;57.55;;;;;;;;;;5033969;28;20116;-77
2022/12/30 06:02:09;;;;;;;119.35;55.85;;;;;;;;;;5033653;28;20112;-77
2022/12/30 06:04:34;;;;;;;122.53;58.55;;;;;;;;;;5034069;28;20028;-77
2022/12/30 06:07:00;;;;;;;126.22;60.05;;;;;;;;;;5037034;28;20522;-78
2022/12/30 06:09:25;;;;;;;131.75;61.58;;;;;;;;;;5053268;28;20033;-77
2022/12/30 06:11:51;;;;;;;122.68;57.45;;;;;;;;;;5038347;28;20040;-78
2022/12/30 06:14:17;;;;;;;126.75;56.47;;;;;;;;;;5053099;28;20030;-78
2022/12/30 06:16:43;;;;;;;122.38;56.95;;;;;;;;;;5038016;28;20393;-77
2022/12/30 06:19:08;;;;;;;117.90;54.75;;;;;;;;;;5053400;28;20029;-78
2022/12/30 06:21:34;;;;;;;119.60;55.42;;;;;;;;;;5037893;28;20122;-78
2022/12/30 06:24:00;;;;;;;120.28;56.63;;;;;;;;;;5036314;28;20029;-78
2022/12/30 06:26:25;;;;;;;135.35;61.40;;;;;;;;;;5053544;28;20048;-77
2022/12/30 06:28:50;;;;;;;114.97;56.33;;;;;;;;;;5055083;28;20465;-77
2022/12/30 06:31:16;;;;;;;117.85;54.15;;;;;;;;;;5056130;28;20032;-78
2022/12/30 06:33:41;;;;;;;127.40;58.42;;;;;;;;;;5056118;28;20044;-78
2022/12/30 06:36:07;;;;;;;117.32;54.33;;;;;;;;;;5056167;28;20021;-77
2022/12/30 06:38:33;;;;;;;119.20;52.50;;;;;;;;;;5056176;28;20377;-78
2022/12/30 06:40:58;;;;;;;123.32;56.25;;;;;;;;;;5056512;28;20029;-78
2022/12/30 06:43:24;;;;;;;117.95;55.38;;;;;;;;;;5056114;28;20033;-77
2022/12/30 06:45:49;;;;;;;135.85;59.83;;;;;;;;;;5055862;28;20032;-77
2022/12/30 06:48:15;;;;;;;129.98;60.13;;;;;;;;;;5021438;28;20124;-77
2022/12/30 06:50:40;;;;;;;129.60;59.80;;;;;;;;;;5055760;28;20057;-78
2022/12/30 06:53:06;;;;;;;135.27;61.78;;;;;;;;;;5055764;28;20040;-77
2022/12/30 06:55:31;;;;;;;157.32;73.82;;;;;;;;;;5054884;28;20029;-78
2022/12/30 06:57:56;;;;;;;141.85;68.68;;;;;;;;;;5054858;28;20028;-78
2022/12/30 07:00:22;;;;;;;150.63;68.07;;;;;;;;;;5055940;28;20020;-78
2022/12/30 07:02:48;;;;;;;141.93;65.15;;;;;;;;;;5040374;28;20410;-78
2022/12/30 07:05:13;;;;;;;153.68;70.32;;;;;;;;;;5048370;28;20032;-78
2022/12/30 07:07:39;;;;;;;158.35;73.57;;;;;;;;;;5061684;28;20553;-77
2022/12/30 07:10:05;;;;;;;149.85;70.47;;;;;;;;;;5054722;28;20052;-78
2022/12/30 07:12:30;;;;;;;151.20;70.60;;;;;;;;;;5038044;28;20029;-77
2022/12/30 07:14:55;;;;;;;180.43;83.05;;;;;;;;;;5055400;28;20024;-77
2022/12/30 07:17:21;;;;;;;193.13;93.10;;;;;;;;;;5053874;28;20064;-77
2022/12/30 07:19:46;;;;;;;214.00;101.72;;;;;;;;;;5037883;28;20032;-77
2022/12/30 07:22:12;;;;;;;224.55;111.43;;;;;;;;;;5055745;28;20037;-77
2022/12/30 07:24:38;;;;;;;209.18;100.68;;;;;;;;;;5055483;28;20029;-77
2022/12/30 07:27:03;;;;;;;210.52;97.40;;;;;;;;;;5055584;28;20350;-77
2022/12/30 07:29:29;;;;;;;199.35;95.32;;;;;;;;;;4996691;28;1168723;-77
2022/12/30 07:31:55;;;;;;;187.35;89.57;;;;;;;;;;5056647;28;20135;-77
2022/12/30 07:34:20;;;;;;;183.15;85.93;;;;;;;;;;5059911;28;20092;-77
2022/12/30 07:36:46;;;;;;;174.75;79.20;;;;;;;;;;5067932;28;20032;-77
2022/12/30 07:39:11;;;;;;;200.20;85.95;;;;;;;;;;5059998;28;20128;-78
2022/12/30 07:41:36;;;;;;;171.45;83.10;;;;;;;;;;5055173;28;20136;-77
2022/12/30 07:44:02;;;;;;;199.23;89.63;;;;;;;;;;5038153;28;20025;-78
2022/12/30 07:46:27;;;;;;;158.13;71.75;;;;;;;;;;5056239;28;20029;-77
2022/12/30 07:48:53;;;;;;;150.80;70.45;;;;;;;;;;5056221;28;20465;-77
2022/12/30 07:51:18;;;;;;;140.30;66.32;;;;;;;;;;5038112;28;20111;-77
2022/12/30 07:53:44;;;;;;;136.52;67.45;;;;;;;;;;5054903;28;20104;-77
2022/12/30 07:56:11;;;;;;;135.23;65.53;;;;;;;;;;5021479;28;20095;-77
2022/12/30 07:58:36;;;;;;;121.95;61.47;;;;;;;;;;5055880;28;20040;-77
2022/12/30 08:01:10;;;;;;;125.75;62.25;;;;;;;;;;5056029;28;20028;-76
2022/12/30 08:03:35;;;;;;;128.95;58.70;;;;;;;;;;5038611;28;20040;-79
2022/12/30 08:06:15;;;;;;;119.72;56.13;;;;;;;;;;5038413;28;20034;-79
2022/12/30 08:08:41;;;;;;;185.73;88.90;;;;;;;;;;5037936;28;20685;-78
2022/12/30 08:11:07;;;;;;;156.20;76.80;;;;;;;;;;5037922;28;20021;-79
2022/12/30 08:13:33;;;;;;;217.10;110.90;;;;;;;;;;5070611;28;20095;-77
2022/12/30 08:15:59;;;;;;;145.00;74.55;;;;;;;;;;5037778;28;20082;-79
2022/12/30 08:18:24;;;;;;;162.55;76.30;;;;;;;;;;5054286;28;20044;-79
2022/12/30 08:20:50;;;;;;;153.98;75.55;;;;;;;;;;5055412;28;20060;-79
2022/12/30 08:23:15;;;;;;;149.15;78.72;;;;;;;;;;5055939;28;20041;-77
2022/12/30 08:25:40;;;;;;;157.73;79.85;;;;;;;;;;5055541;28;20044;-78
2022/12/30 08:28:06;;;;;;;156.32;75.70;;;;;;;;;;5020021;28;20045;-78
2022/12/30 08:30:32;;;;;;;161.02;79.03;;;;;;;;;;5038648;28;20037;-77
2022/12/30 08:32:57;;;;;;;155.82;76.55;;;;;;;;;;5033993;28;20037;-77
2022/12/30 08:35:22;;;;;;;154.05;72.30;;;;;;;;;;5034992;28;20037;-77
2022/12/30 08:37:48;;;;;;;141.50;66.22;;;;;;;;;;5017592;28;20025;-77
2022/12/30 08:40:13;;;;;;;132.82;62.70;;;;;;;;;;5017594;28;20034;-77
2022/12/30 08:42:39;;;;;;;114.70;60.55;;;;;;;;;;5016866;28;20064;-77
2022/12/30 08:45:05;;;;;;;110.63;56.28;;;;;;;;;;5035103;28;20037;-77
2022/12/30 08:47:30;;;;;;;105.60;49.72;;;;;;;;;;5001593;28;20140;-77
2022/12/30 08:49:56;;;;;;;102.18;51.67;;;;;;;;;;5035272;28;20431;-76
2022/12/30 08:52:21;;;;;;;102.38;51.17;;;;;;;;;;5034929;28;20056;-76
2022/12/30 08:54:46;;;;;;;96.03;49.88;;;;;;;;;;5034964;28;20431;-77
2022/12/30 08:57:12;;;;;;;100.55;51.25;;;;;;;;;;5034741;28;20116;-76
2022/12/30 08:59:38;;;;;;;95.93;48.75;;;;;;;;;;5034697;28;20072;-75
2022/12/30 09:02:04;;;;;;;95.50;49.25;;;;;;;;;;5000835;28;20091;-76
2022/12/30 09:04:29;;;;;;;95.55;48.78;;;;;;;;;;5034913;28;20026;-77
2022/12/30 09:06:55;;;;;;;94.97;50.25;;;;;;;;;;5034491;28;20033;-77
2022/12/30 09:09:20;;;;;;;90.90;48.05;;;;;;;;;;5034520;28;20041;-77
2022/12/30 09:11:47;;;;;;;91.22;47.13;;;;;;;;;;5016608;28;20045;-77
2022/12/30 09:14:12;;;;;;;93.93;46.83;;;;;;;;;;5034643;28;20030;-77
2022/12/30 09:16:38;;;;;;;92.68;45.55;;;;;;;;;;5016950;28;20049;-77
2022/12/30 09:19:04;;;;;;;81.88;42.85;;;;;;;;;;5016653;28;20029;-77
2022/12/30 09:21:29;;;;;;;90.65;44.17;;;;;;;;;;5034742;28;20033;-78
2022/12/30 09:23:54;;;;;;;81.13;44.90;;;;;;;;;;5034203;28;20099;-77
2022/12/30 09:26:22;;;;;;;85.28;43.50;;;;;;;;;;5034391;28;20396;-78
2022/12/30 09:28:48;;;;;;;82.18;42.92;;;;;;;;;;5016422;28;20033;-78
2022/12/30 09:31:13;;;;;;;83.13;42.92;;;;;;;;;;4999836;28;20441;-78
2022/12/30 09:33:39;;;;;;;79.78;42.50;;;;;;;;;;5016587;28;20061;-78
2022/12/30 09:36:05;;;;;;;81.47;41.20;;;;;;;;;;5034557;28;20029;-78
2022/12/30 09:38:31;;;;;;;76.05;40.28;;;;;;;;;;5016818;28;20087;-78
2022/12/30 09:41:05;;;;;;;76.38;41.20;;;;;;;;;;5016237;28;20025;-76
2022/12/30 09:43:52;;;;;;;81.65;44.00;;;;;;;;;;5034521;28;20041;-79
2022/12/30 09:46:23;;;;;;;75.65;40.60;;;;;;;;;;5033888;28;20049;-77
2022/12/30 09:49:15;;;;;;;76.90;40.33;;;;;;;;;;5034183;28;20030;-77
2022/12/30 09:51:46;;;;;;;84.78;41.33;;;;;;;;;;5010714;28;20159;-76
2022/12/30 09:54:29;;;;;;;73.93;39.40;;;;;;;;;;5032938;28;20029;-76
2022/12/30 09:57:30;;;;;;;76.57;40.88;;;;;;;;;;5032761;28;20080;-77
2022/12/30 09:59:43;;;;;;;77.22;40.92;;;;;;;;;;5032839;28;20092;-77
2022/12/30 10:02:28;;;;;;;80.88;43.60;;;;;;;;;;5032489;28;20462;-77
2022/12/30 10:04:55;;;;;;;78.00;42.63;;;;;;;;;;5016257;28;20037;-77
2022/12/30 10:07:59;;;;;;;79.88;43.97;;;;;;;;;;5016523;28;20040;-77
2022/12/30 10:10:27;;;;;;;85.20;44.17;;;;;;;;;;5049187;28;20387;-78
2022/12/30 10:13:06;;;;;;;87.07;44.97;;;;;;;;;;5032219;28;20534;-76
2022/12/30 10:15:49;;;;;;;85.82;45.10;;;;;;;;;;5016401;28;20048;-76
2022/12/30 10:18:30;;;;;;;85.10;44.03;;;;;;;;;;5032602;28;20037;-77
2022/12/30 10:21:04;;;;;;;;;;;;;;;;;;5034768;28;20041;-78
2022/12/30 10:23:49;;;;;;;106.10;51.90;;;;;;;;;;5036932;28;19923;-76
2022/12/30 10:26:31;;;;;;;88.15;45.70;;;;;;;;;;5026982;28;20029;-77
2022/12/30 10:28:59;;;;;;;89.30;45.75;;;;;;;;;;5037526;28;20046;-76
2022/12/30 10:31:26;;;;;;;83.72;43.20;;;;;;;;;;5018121;28;20450;-77
2022/12/30 10:33:54;;;;;;;74.82;40.08;;;;;;;;;;5035000;28;20036;-77
2022/12/30 10:36:28;;;;;;;70.60;38.03;;;;;;;;;;5033319;28;20034;-76
2022/12/30 10:39:12;;;;;;;78.82;40.53;;;;;;;;;;5016393;28;20409;-77
2022/12/30 10:42:12;;;;;;;75.78;39.92;;;;;;;;;;5032015;28;20438;-77
2022/12/30 10:44:40;;;;;;;92.43;48.83;;;;;;;;;;5018788;28;20343;-77
2022/12/30 10:47:36;;;;;;;84.78;45.22;;;;;;;;;;5033704;28;20073;-78
2022/12/30 10:50:14;;;;;;;89.75;46.13;;;;;;;;;;5033780;28;20374;-77
2022/12/30 10:52:39;;;;;;;94.43;50.72;;;;;;;;;;5035387;28;20454;-77
2022/12/30 10:55:22;;;;;;;98.93;49.60;;;;;;;;;;5036411;28;20043;-77
2022/12/30 10:57:49;;;;;;;86.43;46.20;;;;;;;;;;5044511;28;20018;-77
2022/12/30 11:00:15;;;;;;;87.72;46.63;;;;;;;;;;5044265;28;20438;-77
2022/12/30 11:02:40;;;;;;;91.35;48.33;;;;;;;;;;5020020;28;20092;-77
2022/12/30 11:05:33;;;;;;;90.20;50.50;;;;;;;;;;5037468;28;20053;-77
2022/12/30 11:07:59;;;;;;;87.40;47.67;;;;;;;;;;5032006;28;20435;-77
2022/12/30 11:10:24;;;;;;;93.68;50.20;;;;;;;;;;5019194;28;20061;-77
2022/12/30 11:15:49;;;;;;;111.38;54.42;;;;;;;;;;5021660;28;20029;-77
2022/12/30 11:18:15;;;;;;;88.18;47.22;;;;;;;;;;5019363;28;20033;-77
2022/12/30 11:20:40;;;;;;;86.22;44.13;;;;;;;;;;5035490;28;20402;-77
2022/12/30 11:23:20;;;;;;;94.10;47.38;;;;;;;;;;5018905;28;20025;-76
2022/12/30 11:25:45;;;;;;;99.50;46.17;;;;;;;;;;5035435;28;20347;-76
2022/12/30 11:28:36;;;;;;;106.65;50.88;;;;;;;;;;5002487;28;20091;-76
2022/12/30 11:31:09;;;;;;;85.65;45.10;;;;;;;;;;5018586;28;20108;-77
2022/12/30 11:33:38;;;;;;;89.80;47.65;;;;;;;;;;5034969;28;20120;-76
2022/12/30 11:36:21;;;;;;;81.93;44.08;;;;;;;;;;5035904;28;20121;-78
2022/12/30 11:38:48;;;;;;;92.25;44.90;;;;;;;;;;5034934;28;20462;-77
2022/12/30 11:41:17;;;;;;;84.80;45.05;;;;;;;;;;5036405;28;20040;-78
2022/12/30 11:44:02;;;;;;;85.82;44.55;;;;;;;;;;5036332;28;20108;-77
2022/12/30 11:46:36;;;;;;;84.82;42.60;;;;;;;;;;5035554;28;20038;-78
2022/12/30 11:49:04;;;;;;;80.53;42.53;;;;;;;;;;5019161;28;20029;-77
2022/12/30 11:51:32;;;;;;;81.88;41.38;;;;;;;;;;5034808;28;20112;-77
2022/12/30 11:54:05;;;;;;;80.20;42.88;;;;;;;;;;5018844;28;20037;-75
2022/12/30 11:56:31;;;;;;;89.93;44.92;;;;;;;;;;5034597;28;20029;-76
2022/12/30 11:58:58;;;;;;;98.65;48.90;;;;;;;;;;5001984;28;20035;-78
2022/12/30 12:01:23;;;;;;;92.70;45.80;;;;;;;;;;5018510;28;20465;-78
2022/12/30 12:03:54;;;;;;;78.97;40.92;;;;;;;;;;5016959;28;20030;-78
2022/12/30 12:06:19;;;;;;;84.00;43.17;;;;;;;;;;5018497;28;20044;-78
2022/12/30 12:08:58;;;;;;;80.65;41.47;;;;;;;;;;5034652;28;20437;-78
2022/12/30 12:11:27;;;;;;;79.00;41.63;;;;;;;;;;5018420;28;20064;-78
2022/12/30 12:14:11;;;;;;;94.60;44.88;;;;;;;;;;5034413;28;20022;-77
2022/12/30 12:17:03;;;;;;;76.82;40.25;;;;;;;;;;5018151;28;20029;-78
2022/12/30 12:19:50;;;;;;;77.15;40.95;;;;;;;;;;5017595;28;20051;-76
2022/12/30 12:22:23;;;;;;;82.88;43.60;;;;;;;;;;5018403;28;20026;-78
2022/12/30 12:24:53;;;;;;;80.55;43.40;;;;;;;;;;5017747;28;20037;-78
2022/12/30 12:27:19;;;;;;;81.27;43.63;;;;;;;;;;5035627;28;20453;-77
2022/12/30 12:29:45;;;;;;;77.38;41.60;;;;;;;;;;5027443;28;20299;-77
2022/12/30 12:32:56;;;;;;;82.57;40.30;;;;;;;;;;5021044;28;20043;-77
2022/12/30 12:35:59;;;;;;;73.40;39.97;;;;;;;;;;5037171;28;20474;-77
2022/12/30 12:38:56;;;;;;;77.85;41.00;;;;;;;;;;5054939;28;20033;-78
2022/12/30 12:41:43;;;;;;;79.43;41.05;;;;;;;;;;5000788;28;20042;-78
2022/12/30 12:44:36;;;;;;;76.43;40.90;;;;;;;;;;5055157;28;20099;-78
2022/12/30 12:47:19;;;;;;;82.13;42.65;;;;;;;;;;5055067;28;20047;-78
2022/12/30 12:49:58;;;;;;;87.55;44.85;;;;;;;;;;5054767;28;20438;-78
2022/12/30 12:52:56;;;;;;;85.05;44.78;;;;;;;;;;5036696;28;20045;-78
2022/12/30 12:55:26;;;;;;;90.88;48.10;;;;;;;;;;5039929;28;20032;-77
2022/12/30 12:58:04;;;;;;;104.32;53.67;;;;;;;;;;5036893;28;20025;-78
2022/12/30 13:00:42;;;;;;;83.45;44.40;;;;;;;;;;5054642;28;20044;-78
2022/12/30 13:03:48;;;;;;;81.90;45.13;;;;;;;;;;5037784;28;20093;-78
2022/12/30 13:06:40;;;;;;;86.85;45.45;;;;;;;;;;5045917;28;20420;-77
2022/12/30 13:09:37;;;;;;;89.82;47.58;;;;;;;;;;5054792;28;20533;-77
2022/12/30 13:12:25;;;;;;;82.28;42.45;;;;;;;;;;5036841;28;20029;-78
2022/12/30 13:14:55;;;;;;;83.75;44.05;;;;;;;;;;5053061;28;20116;-78
2022/12/30 13:17:33;;;;;;;86.13;44.75;;;;;;;;;;5036368;28;20028;-78
2022/12/30 13:20:03;;;;;;;94.55;50.08;;;;;;;;;;5037353;28;20127;-78
2022/12/30 13:22:32;;;;;;;96.22;50.08;;;;;;;;;;5020258;28;20469;-77
2022/12/30 13:24:58;;;;;;;103.20;52.53;;;;;;;;;;5036335;28;20411;-78
2022/12/30 13:27:30;;;;;;;103.85;51.92;;;;;;;;;;5036300;28;20057;-78
2022/12/30 13:29:56;;;;;;;91.38;48.30;;;;;;;;;;5041925;28;20447;-78
2022/12/30 13:33:02;;;;;;;89.32;46.80;;;;;;;;;;5016110;28;20060;-79
2022/12/30 13:35:32;;;;;;;89.70;46.70;;;;;;;;;;5034400;28;20116;-77
2022/12/30 13:38:09;;;;;;;85.60;44.78;;;;;;;;;;5017320;28;20057;-78
2022/12/30 13:41:06;;;;;;;84.85;45.40;;;;;;;;;;5034837;28;20091;-76
2022/12/30 13:43:38;;;;;;;96.65;46.38;;;;;;;;;;5033112;28;20454;-76
2022/12/30 13:46:04;;;;;;;94.35;46.50;;;;;;;;;;5017625;28;20021;-77
2022/12/30 13:48:33;;;;;;;95.68;48.88;;;;;;;;;;5041953;28;20093;-76
2022/12/30 13:51:06;;;;;;;100.68;51.97;;;;;;;;;;5042908;28;20033;-76
2022/12/30 13:53:34;;;;;;;109.80;51.55;;;;;;;;;;5019583;28;20033;-76
2022/12/30 13:56:00;;;;;;;105.25;52.72;;;;;;;;;;5034258;28;20981;-76
2022/12/30 13:58:32;;;;;;;106.90;51.80;;;;;;;;;;5016715;28;20033;-76
2022/12/30 14:01:19;;;;;;;121.25;59.08;;;;;;;;;;5016113;28;20077;-76
2022/12/30 14:04:10;;;;;;;128.77;59.17;;;;;;;;;;5016382;28;20026;-76
2022/12/30 14:06:43;;;;;;;108.55;53.60;;;;;;;;;;5028236;28;20150;-77
2022/12/30 14:09:24;;;;;;;170.65;70.68;;;;;;;;;;5016077;28;20411;-78
2022/12/30 14:12:05;;;;;;;163.60;74.20;;;;;;;;;;5016345;28;20391;-76
2022/12/30 14:14:36;;;;;;;123.13;59.05;;;;;;;;;;5033815;28;20037;-76
2022/12/30 14:17:08;;;;;;;131.07;61.65;;;;;;;;;;4999974;28;20137;-76
2022/12/30 14:19:52;;;;;;;112.20;55.78;;;;;;;;;;5017751;28;20029;-76
2022/12/30 14:22:39;;;;;;;133.77;62.72;;;;;;;;;;5044729;28;20049;-76
2022/12/30 14:25:14;;;;;;;150.95;69.95;;;;;;;;;;5041875;28;20457;-77
2022/12/30 14:27:49;;;;;;;144.02;69.35;;;;;;;;;;5036743;28;20030;-77
2022/12/30 14:30:47;;;;;;;157.90;71.22;;;;;;;;;;5036518;28;20041;-78
2022/12/30 14:33:17;;;;;;;149.65;70.25;;;;;;;;;;5022385;28;20040;-77
2022/12/30 14:36:16;;;;;;;151.05;70.22;;;;;;;;;;5037391;28;20120;-77
2022/12/30 14:38:48;;;;;;;143.57;67.25;;;;;;;;;;5021267;28;20049;-76
2022/12/30 14:41:17;;;;;;;133.07;65.47;;;;;;;;;;5037293;28;20036;-76
2022/12/30 14:43:51;;;;;;;123.50;60.28;;;;;;;;;;5037126;28;20059;-77
2022/12/30 14:46:40;;;;;;;119.03;59.13;;;;;;;;;;5036306;28;20374;-77
2022/12/30 14:49:14;;;;;;;119.60;57.42;;;;;;;;;;5037321;28;20040;-78
2022/12/30 14:51:42;;;;;;;121.25;60.88;;;;;;;;;;5037290;28;20025;-77
2022/12/30 14:54:11;;;;;;;121.15;60.88;;;;;;;;;;5019978;28;20072;-77
2022/12/30 14:56:37;;;;;;;136.70;66.75;;;;;;;;;;5019799;28;20521;-77
2022/12/30 14:59:02;;;;;;;139.10;70.63;;;;;;;;;;5036762;28;20056;-79
2022/12/30 15:01:30;;;;;;;128.68;63.75;;;;;;;;;;5019177;28;20427;-79
2022/12/30 15:04:12;;;;;;;119.40;62.30;;;;;;;;;;5019567;28;20025;-76
2022/12/30 15:06:40;;;;;;;129.52;61.15;;;;;;;;;;5037276;28;20025;-77
2022/12/30 15:09:07;;;;;;;128.43;65.75;;;;;;;;;;5019606;28;20116;-77
2022/12/30 15:11:33;;;;;;;141.27;69.60;;;;;;;;;;5035783;28;20127;-78
2022/12/30 15:13:59;;;;;;;176.05;88.50;;;;;;;;;;5018816;28;20060;-77
2022/12/30 15:16:43;;;;;;;253.02;122.72;;;;;;;;;;5036697;28;20442;-78
2022/12/30 15:19:24;;;;;;;220.35;109.45;;;;;;;;;;5005159;28;20044;-77
2022/12/30 15:21:49;;;;;;;;;;;;;;;;;;5020340;28;20446;-77
2022/12/30 15:24:16;;;;;;;190.50;90.97;;;;;;;;;;5035558;28;19920;-77